createdAt,value
2018-03-27T00:04:39.778Z,3.4
2018-03-27T00:10:07.823Z,3.4
2018-03-27T00:15:34.825Z,3.3
2018-03-27T00:21:01.973Z,3.3
2018-03-27T00:26:28.858Z,3.3
2018-03-27T00:31:55.887Z,3.3
2018-03-27T00:37:23.933Z,3.3
2018-03-27T00:42:51.918Z,3.3
2018-03-27T00:48:18.954Z,3.2
2018-03-27T00:53:45.987Z,3.2
2018-03-27T00:59:13.978Z,3.2
2018-03-27T01:04:41.200Z,3.3
2018-03-27T01:10:08.019Z,3.3
2018-03-27T01:15:35.053Z,3.2
2018-03-27T01:21:02.043Z,3.1
2018-03-27T01:26:29.063Z,3.2
2018-03-27T01:31:57.029Z,3.1
2018-03-27T01:37:25.075Z,3.1
2018-03-27T01:42:53.049Z,3.1
2018-03-27T01:48:21.040Z,3.2
2018-03-27T01:53:48.037Z,3.1
2018-03-27T01:59:16.057Z,3.1
2018-03-27T02:04:43.099Z,3
2018-03-27T02:10:11.065Z,3
2018-03-27T02:15:38.060Z,3.1
2018-03-27T02:21:05.055Z,3
2018-03-27T02:26:33.029Z,3
2018-03-27T02:32:01.096Z,3
2018-03-27T02:37:28.083Z,3
2018-03-27T02:42:56.090Z,3
2018-03-27T02:48:24.063Z,3
2018-03-27T02:53:51.112Z,3
2018-03-27T02:59:19.018Z,3
2018-03-27T03:04:47.020Z,3.1
2018-03-27T03:10:14.037Z,3.1
2018-03-27T03:15:41.052Z,3.2
2018-03-27T03:21:09.063Z,3.2
2018-03-27T03:26:37.081Z,3.2
2018-03-27T03:32:05.053Z,3.2
2018-03-27T03:37:33.102Z,3.2
2018-03-27T03:43:00.115Z,3.3
2018-03-27T03:48:33.095Z,3.3
2018-03-27T03:53:55.106Z,3.3
2018-03-27T03:59:22.116Z,3.3
2018-03-27T04:04:50.117Z,3.3
2018-03-27T04:10:18.110Z,3.3
2018-03-27T04:15:45.246Z,3.3
2018-03-27T04:21:13.309Z,3.3
2018-03-27T04:26:40.216Z,3.4
2018-03-27T04:32:08.319Z,3.4
2018-03-27T04:37:36.233Z,3.4
2018-03-27T04:43:03.378Z,3.4
2018-03-27T04:48:31.266Z,3.4
2018-03-27T04:53:58.291Z,3.3
2018-03-27T04:59:25.774Z,3.3
2018-03-27T05:04:52.303Z,3.3
2018-03-27T05:10:20.393Z,3.2
2018-03-27T05:15:48.343Z,3.2
2018-03-27T05:21:15.463Z,3.3
2018-03-27T05:26:43.354Z,3.2
2018-03-27T05:32:11.371Z,3.2
2018-03-27T05:37:39.383Z,3.2
2018-03-27T05:43:06.400Z,3.1
2018-03-27T05:48:33.367Z,3.1
2018-03-27T05:54:00.392Z,3.1
2018-03-27T05:59:28.420Z,3
2018-03-27T06:04:56.370Z,3.1
2018-03-27T06:10:23.364Z,3.1
2018-03-27T06:15:51.363Z,3.1
2018-03-27T06:21:18.347Z,3.1
2018-03-27T06:26:45.379Z,3.2
2018-03-27T06:32:12.371Z,3.1
2018-03-27T06:37:40.400Z,3.1
2018-03-27T06:43:07.380Z,3.1
2018-03-27T06:48:35.369Z,3.1
2018-03-27T06:54:03.345Z,3.1
2018-03-27T06:59:31.347Z,3.2
2018-03-27T07:04:59.365Z,3.3
2018-03-27T07:10:27.389Z,3.4
2018-03-27T07:15:54.435Z,3.4
2018-03-27T07:21:21.555Z,3.5
2018-03-27T07:26:49.582Z,3.6
2018-03-27T07:32:16.494Z,3.7
2018-03-27T07:37:43.547Z,3.7
2018-03-27T07:43:11.553Z,3.8
2018-03-27T07:48:39.624Z,3.9
2018-03-27T07:54:07.735Z,4
2018-03-27T07:59:34.730Z,4.1
2018-03-27T08:05:02.815Z,4.2
2018-03-27T08:10:29.849Z,4.1
2018-03-27T08:15:56.974Z,4
2018-03-27T08:21:24.004Z,4.1
2018-03-27T08:26:52.053Z,4.2
2018-03-27T08:32:20.282Z,4.4
2018-03-27T08:37:48.251Z,4.6
2018-03-27T08:43:15.324Z,4.7
2018-03-27T08:48:43.490Z,4.8
2018-03-27T08:54:10.598Z,4.9
2018-03-27T08:59:37.740Z,5
2018-03-27T09:05:05.847Z,5.3
2018-03-27T09:10:34.018Z,5.6
2018-03-27T09:16:02.214Z,5.7
2018-03-27T09:21:29.477Z,5.7
2018-03-27T09:26:56.665Z,5.9
2018-03-27T09:32:25.088Z,6.1
2018-03-27T09:37:52.047Z,6.4
2018-03-27T09:43:19.322Z,6.6
2018-03-27T09:48:47.620Z,6.5
2018-03-27T09:54:15.846Z,6.4
2018-03-27T09:59:43.099Z,6.6
2018-03-27T10:05:11.640Z,6.4
2018-03-27T10:10:38.608Z,6.7
2018-03-27T10:16:06.921Z,7.3
2018-03-27T10:21:35.339Z,7.2
2018-03-27T10:27:03.542Z,7.1
2018-03-27T10:32:30.894Z,7.3
2018-03-27T10:37:59.184Z,7.4
2018-03-27T10:43:26.510Z,7.2
2018-03-27T10:48:53.882Z,7.2
2018-03-27T10:54:21.190Z,7.3
2018-03-27T10:59:49.576Z,7.1
2018-03-27T11:05:17.794Z,6.8
2018-03-27T11:10:46.112Z,6.8
2018-03-27T11:16:14.523Z,7
2018-03-27T11:21:42.713Z,7.2
2018-03-27T11:27:10.066Z,7.3
2018-03-27T11:32:38.392Z,7.5
2018-03-27T11:38:06.727Z,7.7
2018-03-27T11:43:34.068Z,7.8
2018-03-27T11:49:01.457Z,7.9
2018-03-27T11:54:28.889Z,8.1
2018-03-27T11:59:57.268Z,8.2
2018-03-27T12:05:24.803Z,8.2
2018-03-27T12:10:53.136Z,8.5
2018-03-27T12:16:21.636Z,9.6
2018-03-27T12:21:50.142Z,10.4
2018-03-27T12:27:18.853Z,11.8
2018-03-27T12:32:46.599Z,12.7
2018-03-27T12:38:15.536Z,13.3
2018-03-27T12:43:43.331Z,12.5
2018-03-27T12:49:12.129Z,11.5
2018-03-27T12:54:40.943Z,12.2
2018-03-27T13:00:09.659Z,12
2018-03-27T13:05:37.409Z,11
2018-03-27T13:11:06.056Z,10.1
2018-03-27T13:16:34.632Z,9.5
2018-03-27T13:22:03.210Z,9.3
2018-03-27T13:27:31.715Z,10.2
2018-03-27T13:32:59.549Z,11.4
2018-03-27T13:38:27.156Z,13.4
2018-03-27T13:43:54.984Z,12.9
2018-03-27T13:49:22.839Z,11.5
2018-03-27T13:54:51.534Z,10.4
2018-03-27T14:00:19.400Z,9.5
2018-03-27T14:05:46.670Z,8.9
2018-03-27T14:11:15.131Z,8.4
2018-03-27T14:16:43.760Z,8.2
2018-03-27T14:22:10.980Z,8
2018-03-27T14:27:39.371Z,7.8
2018-03-27T14:33:07.753Z,7.6
2018-03-27T14:38:35.165Z,7.5
2018-03-27T14:44:02.487Z,7.4
2018-03-27T14:49:30.804Z,7.3
2018-03-27T14:54:58.143Z,7.1
2018-03-27T15:00:26.460Z,7
2018-03-27T15:05:53.850Z,7
2018-03-27T15:11:22.106Z,7
2018-03-27T15:16:50.488Z,7
2018-03-27T15:22:18.675Z,6.9
2018-03-27T15:27:45.981Z,6.9
2018-03-27T15:33:13.261Z,6.8
2018-03-27T15:38:41.568Z,6.6
2018-03-27T15:44:09.815Z,6.5
2018-03-27T15:49:37.064Z,6.5
2018-03-27T15:55:04.353Z,6.4
2018-03-27T16:00:32.703Z,6.3
2018-03-27T16:05:59.855Z,6.2
2018-03-27T16:11:27.098Z,6
2018-03-27T16:16:55.325Z,5.8
2018-03-27T16:22:22.538Z,5.8
2018-03-27T16:27:50.722Z,5.8
2018-03-27T16:33:17.953Z,5.7
2018-03-27T16:38:46.346Z,5.5
2018-03-27T16:44:14.302Z,5.5
2018-03-27T16:49:41.474Z,5.4
2018-03-27T16:55:09.677Z,5.4
2018-03-27T17:00:36.817Z,5.4
2018-03-27T17:06:04.089Z,5.3
2018-03-27T17:11:32.354Z,5.3
2018-03-27T17:17:00.415Z,5.1
2018-03-27T17:22:28.557Z,5
2018-03-27T17:27:56.708Z,4.9
2018-03-27T17:33:24.855Z,4.9
2018-03-27T17:38:53.031Z,4.7
2018-03-27T17:44:21.231Z,4.6
2018-03-27T17:49:49.502Z,4.5
2018-03-27T17:55:17.320Z,4.5
2018-03-27T18:00:45.403Z,4.5
2018-03-27T18:06:12.522Z,4.4
2018-03-27T18:11:40.667Z,4.4
2018-03-27T18:17:07.707Z,4.4
2018-03-27T18:22:35.811Z,4.4
2018-03-27T18:28:02.964Z,4.4
2018-03-27T18:33:30.991Z,4.3
2018-03-27T18:38:58.099Z,4.3
2018-03-27T18:44:25.139Z,4.4
2018-03-27T18:49:53.242Z,4.5
2018-03-27T18:55:21.317Z,4.5
2018-03-27T19:00:48.450Z,4.5
2018-03-27T19:06:15.581Z,4.5
2018-03-27T19:11:42.610Z,4.5
2018-03-27T19:17:10.718Z,4.4
2018-03-27T19:22:38.799Z,4.3
2018-03-27T19:28:06.887Z,4.2
2018-03-27T19:33:34.005Z,4.2
2018-03-27T19:39:01.063Z,4.1
2018-03-27T19:44:29.130Z,4.1
2018-03-27T19:49:57.186Z,4
2018-03-27T19:55:24.255Z,4
2018-03-27T20:00:51.642Z,4
2018-03-27T20:06:18.588Z,4
2018-03-27T20:11:45.572Z,3.9
2018-03-27T20:17:13.463Z,3.9
2018-03-27T20:22:40.575Z,3.9
2018-03-27T20:28:08.677Z,3.8
2018-03-27T20:33:35.632Z,3.8
2018-03-27T20:39:03.657Z,3.8
2018-03-27T20:44:30.682Z,3.8
2018-03-27T20:49:57.813Z,3.8
2018-03-27T20:55:24.766Z,3.8
2018-03-27T21:00:52.809Z,3.7
2018-03-27T21:06:19.824Z,3.7
2018-03-27T21:11:46.944Z,3.7
2018-03-27T21:17:14.942Z,3.6
2018-03-27T21:22:43.157Z,3.6
2018-03-27T21:28:09.983Z,3.5
2018-03-27T21:33:36.975Z,3.5
2018-03-27T21:39:04.186Z,3.4
2018-03-27T21:44:30.988Z,3.4
2018-03-27T21:49:58.086Z,3.4
2018-03-27T21:55:26.049Z,3.4
2018-03-27T22:00:53.039Z,3.3
2018-03-27T22:06:20.073Z,3.3
2018-03-27T22:11:47.026Z,3.3
2018-03-27T22:17:14.059Z,3.3
2018-03-27T22:22:42.104Z,3.2
2018-03-27T22:28:10.095Z,3.2
2018-03-27T22:33:38.061Z,3.1
2018-03-27T22:39:05.048Z,3.1
2018-03-27T22:44:33.086Z,3
2018-03-27T22:50:00.128Z,2.9
2018-03-27T22:55:28.119Z,2.8
2018-03-27T23:00:54.971Z,2.8
2018-03-27T23:06:21.939Z,2.7
2018-03-27T23:11:48.921Z,2.6
2018-03-27T23:17:16.891Z,2.6
2018-03-27T23:22:44.846Z,2.5
2018-03-27T23:28:12.752Z,2.4
2018-03-27T23:33:40.704Z,2.4
2018-03-27T23:39:07.611Z,2.3
2018-03-27T23:44:35.695Z,2.3
2018-03-27T23:50:03.462Z,2.3
2018-03-27T23:55:31.389Z,2.4
